Time,TemperatureF,DewpointF,PressureIn,WindDirection,WindDirectionDegrees,WindSpeedMPH,WindSpeedGustMPH,Humidity,HourlyPrecipIn,Conditions,Clouds,dailyrainin,SoftwareType,DateUTC
2013-01-07 00:00:00,25.3,23.6,29.90,West,276,0.0,0.0,93,0.00,,OVC034,0.00,VWS V14.00,2013-01-07 05:00:00,
2013-01-07 00:01:00,25.3,23.6,29.90,West,276,0.0,0.0,93,0.00,,,0.00,VWS V14.00,2013-01-07 05:01:00,
2013-01-07 00:06:00,25.2,23.5,29.90,West,276,0.0,0.0,93,0.00,,,0.00,VWS V14.00,2013-01-07 05:06:00,
2013-01-07 00:11:00,25.1,23.4,29.90,West,276,0.0,0.0,93,0.00,,,0.00,VWS V14.00,2013-01-07 05:11:00,
2013-01-07 00:16:00,25.1,23.4,29.90,West,276,1.0,2.0,93,0.00,,,0.00,VWS V14.00,2013-01-07 05:16:00,
2013-01-07 00:21:00,25.1,23.4,29.90,West,276,0.0,2.0,93,0.00,,,0.00,VWS V14.00,2013-01-07 05:21:00,
2013-01-07 00:26:00,25.0,23.3,29.90,West,276,0.0,2.0,93,0.00,,,0.00,VWS V14.00,2013-01-07 05:26:00,
2013-01-07 00:31:00,25.1,23.4,29.90,West,276,0.0,0.0,93,0.00,,,0.00,VWS V14.00,2013-01-07 05:31:00,
2013-01-07 00:36:00,25.1,23.4,29.91,West,276,0.0,0.0,93,0.00,,,0.00,VWS V14.00,2013-01-07 05:36:00,
2013-01-07 00:41:00,25.1,23.4,29.91,West,276,0.0,1.0,93,0.00,,,0.00,VWS V14.00,2013-01-07 05:41:00,
2013-01-07 00:46:00,25.2,23.5,29.91,West,276,2.0,2.0,93,0.00,,,0.00,VWS V14.00,2013-01-07 05:46:00,
2013-01-07 00:51:00,25.6,24.1,29.91,West,276,2.0,2.0,94,0.00,,,0.00,VWS V14.00,2013-01-07 05:51:00,
2013-01-07 00:56:00,26.0,24.5,29.91,West,276,0.0,2.0,94,0.00,,,0.00,VWS V14.00,2013-01-07 05:56:00,
2013-01-07 01:01:00,25.8,24.1,29.91,West,276,0.0,1.0,93,0.00,,,0.00,VWS V14.00,2013-01-07 06:01:00,
2013-01-07 01:06:00,25.7,24.0,29.91,West,276,0.0,1.0,93,0.00,,,0.00,VWS V14.00,2013-01-07 06:06:00,
2013-01-07 01:11:00,25.5,23.8,29.92,West,276,1.0,1.0,93,0.00,,,0.00,VWS V14.00,2013-01-07 06:11:00,
2013-01-07 01:16:00,25.4,23.7,29.92,West,276,1.0,2.0,93,0.00,,,0.00,VWS V14.00,2013-01-07 06:16:00,
2013-01-07 01:21:00,25.4,23.7,29.92,West,276,0.0,2.0,93,0.00,,,0.00,VWS V14.00,2013-01-07 06:21:00,
2013-01-07 01:26:00,25.4,23.7,29.92,West,276,0.0,2.0,93,0.00,,,0.00,VWS V14.00,2013-01-07 06:26:00,
2013-01-07 01:31:00,25.2,23.5,29.93,West,276,0.0,0.0,93,0.00,,,0.00,VWS V14.00,2013-01-07 06:31:00,
2013-01-07 01:36:00,25.1,23.4,29.93,West,276,0.0,1.0,93,0.00,,,0.00,VWS V14.00,2013-01-07 06:36:00,
2013-01-07 01:41:00,25.1,25.1,29.93,West,276,0.0,1.0,100,0.00,,,0.00,VWS V14.00,2013-01-07 06:41:00,
2013-01-07 01:46:00,25.0,23.3,29.93,West,276,0.0,1.0,93,0.00,,,0.00,VWS V14.00,2013-01-07 06:46:00,
2013-01-07 01:51:00,24.9,23.2,29.93,West,276,0.0,1.0,93,0.00,,,0.00,VWS V14.00,2013-01-07 06:51:00,
2013-01-07 01:56:00,24.8,23.1,29.94,West,276,0.0,1.0,93,0.00,,,0.00,VWS V14.00,2013-01-07 06:56:00,
2013-01-07 02:01:00,24.8,23.1,29.94,West,276,0.0,2.0,93,0.00,,,0.00,VWS V14.00,2013-01-07 07:01:00,
2013-01-07 02:06:00,24.7,23.0,29.94,West,276,1.0,2.0,93,0.00,,,0.00,VWS V14.00,2013-01-07 07:06:00,
2013-01-07 02:11:00,24.9,23.2,29.94,West,276,0.0,2.0,93,0.00,,,0.00,VWS V14.00,2013-01-07 07:11:00,
2013-01-07 02:16:00,25.1,23.6,29.95,West,276,0.0,2.0,94,0.00,,,0.00,VWS V14.00,2013-01-07 07:16:00,
2013-01-07 02:21:00,25.3,23.8,29.95,ENE,61,0.0,4.0,94,0.00,,,0.00,VWS V14.00,2013-01-07 07:21:00,
2013-01-07 02:26:00,25.5,24.0,29.95,NE,42,0.0,4.0,94,0.00,,,0.00,VWS V14.00,2013-01-07 07:26:00,
2013-01-07 02:31:00,25.7,24.2,29.95,NE,42,0.0,0.0,94,0.00,,,0.00,VWS V14.00,2013-01-07 07:31:00,
2013-01-07 02:36:00,25.8,24.3,29.95,NE,42,0.0,2.0,94,0.00,,,0.00,VWS V14.00,2013-01-07 07:36:00,
2013-01-07 02:41:00,25.9,24.4,29.95,NE,42,0.0,2.0,94,0.00,,,0.00,VWS V14.00,2013-01-07 07:41:00,
2013-01-07 02:46:00,26.1,24.6,29.95,ENE,65,4.0,4.0,94,0.00,,,0.00,VWS V14.00,2013-01-07 07:46:00,
2013-01-07 02:51:00,26.2,24.7,29.95,ENE,78,2.0,4.0,94,0.00,,,0.00,VWS V14.00,2013-01-07 07:51:00,
2013-01-07 02:56:00,26.3,24.8,29.95,ENE,78,1.0,4.0,94,0.00,,,0.00,VWS V14.00,2013-01-07 07:56:00,
2013-01-07 03:01:00,26.4,24.9,29.95,NE,36,0.0,3.0,94,0.00,,,0.00,VWS V14.00,2013-01-07 08:01:00,
2013-01-07 03:06:00,26.4,24.9,29.95,NE,36,1.0,3.0,94,0.00,,,0.00,VWS V14.00,2013-01-07 08:06:00,
2013-01-07 03:11:00,26.4,24.9,29.95,East,86,0.0,4.0,94,0.00,,,0.00,VWS V14.00,2013-01-07 08:11:00,
2013-01-07 03:16:00,26.4,24.9,29.96,East,86,1.0,4.0,94,0.00,,,0.00,VWS V14.00,2013-01-07 08:16:00,
2013-01-07 03:21:00,26.3,24.8,29.96,East,86,0.0,4.0,94,0.00,,,0.00,VWS V14.00,2013-01-07 08:21:00,
2013-01-07 03:26:00,26.3,24.8,29.97,East,86,0.0,4.0,94,0.00,,,0.00,VWS V14.00,2013-01-07 08:26:00,
2013-01-07 03:31:00,26.4,24.9,29.97,East,86,1.0,1.0,94,0.00,,,0.00,VWS V14.00,2013-01-07 08:31:00,
2013-01-07 03:36:00,26.4,24.9,29.97,East,90,2.0,2.0,94,0.00,,,0.00,VWS V14.00,2013-01-07 08:36:00,
2013-01-07 03:41:00,26.4,24.9,29.97,NE,49,0.0,3.0,94,0.00,,,0.00,VWS V14.00,2013-01-07 08:41:00,
2013-01-07 03:46:00,26.4,24.9,29.97,NE,49,1.0,3.0,94,0.00,,,0.00,VWS V14.00,2013-01-07 08:46:00,
2013-01-07 03:51:00,26.3,24.8,29.98,NNE,19,0.0,3.0,94,0.00,,,0.00,VWS V14.00,2013-01-07 08:51:00,
2013-01-07 03:56:00,26.3,24.8,29.99,NE,43,0.0,4.0,94,0.00,,,0.00,VWS V14.00,2013-01-07 08:56:00,
2013-01-07 04:01:00,26.2,24.7,29.99,ENE,76,2.0,3.0,94,0.00,,,0.00,VWS V14.00,2013-01-07 09:01:00,
2013-01-07 04:06:00,26.2,24.5,29.98,NE,48,0.0,4.0,93,0.00,,,0.00,VWS V14.00,2013-01-07 09:06:00,
2013-01-07 04:11:00,26.1,24.4,29.99,East,86,3.0,6.0,93,0.00,,,0.00,VWS V14.00,2013-01-07 09:11:00,
2013-01-07 04:16:00,26.1,24.4,29.99,ENE,64,3.0,6.0,93,0.00,,,0.00,VWS V14.00,2013-01-07 09:16:00,
2013-01-07 04:21:00,26.1,24.4,29.99,East,93,2.0,6.0,93,0.00,,,0.00,VWS V14.00,2013-01-07 09:21:00,
2013-01-07 04:26:00,26.0,24.3,29.99,NE,44,1.0,7.0,93,0.00,,,0.00,VWS V14.00,2013-01-07 09:26:00,
2013-01-07 04:31:00,26.0,24.3,30.00,NE,53,3.0,5.0,93,0.00,,,0.00,VWS V14.00,2013-01-07 09:31:00,
2013-01-07 04:36:00,26.0,24.0,30.00,NW,318,0.0,5.0,92,0.00,,,0.00,VWS V14.00,2013-01-07 09:36:00,
2013-01-07 04:41:00,26.0,24.0,30.00,ENE,66,2.0,5.0,92,0.00,,,0.00,VWS V14.00,2013-01-07 09:41:00,
2013-01-07 04:46:00,26.0,24.0,30.01,NNW,342,0.0,5.0,92,0.00,,,0.00,VWS V14.00,2013-01-07 09:46:00,
2013-01-07 04:51:00,26.0,24.0,30.01,ENE,69,3.0,5.0,92,0.00,,,0.00,VWS V14.00,2013-01-07 09:51:00,
2013-01-07 04:56:00,26.0,24.0,30.01,ENE,71,1.0,7.0,92,0.00,,,0.00,VWS V14.00,2013-01-07 09:56:00,
2013-01-07 05:01:00,26.0,23.7,30.01,ENE,71,2.0,3.0,91,0.00,,,0.00,VWS V14.00,2013-01-07 10:01:00,
2013-01-07 05:06:00,25.9,23.6,30.01,NW,316,1.0,4.0,91,0.00,,,0.00,VWS V14.00,2013-01-07 10:06:00,
2013-01-07 05:11:00,25.9,23.6,30.02,NNE,28,0.0,4.0,91,0.00,,,0.00,VWS V14.00,2013-01-07 10:11:00,
2013-01-07 05:16:00,25.8,23.5,30.02,ENE,71,2.0,6.0,91,0.00,,,0.00,VWS V14.00,2013-01-07 10:16:00,
2013-01-07 05:21:00,25.8,23.5,30.02,SSW,205,0.0,7.0,91,0.00,,,0.00,VWS V14.00,2013-01-07 10:21:00,
2013-01-07 05:25:00,25.8,23.3,30.03,East,90,6.0,7.0,90,0.00,,,0.00,VWS V14.00,2013-01-07 10:25:00,
2013-01-07 05:30:00,25.7,23.2,30.03,ENE,69,9.0,9.0,90,0.00,,,0.00,VWS V14.00,2013-01-07 10:30:00,
2013-01-07 05:35:00,25.6,23.1,30.04,ENE,73,3.0,9.0,90,0.00,,,0.00,VWS V14.00,2013-01-07 10:35:00,
2013-01-07 05:40:00,25.5,22.7,30.04,NW,311,5.0,9.0,89,0.00,,,0.00,VWS V14.00,2013-01-07 10:40:00,
2013-01-07 05:45:00,25.4,22.6,30.05,North,5,0.0,9.0,89,0.00,,,0.00,VWS V14.00,2013-01-07 10:45:00,
2013-01-07 05:50:00,25.1,22.3,30.05,NW,313,1.0,9.0,89,0.00,,,0.00,VWS V14.00,2013-01-07 10:50:00,
2013-01-07 05:55:00,24.7,21.9,30.05,NE,39,3.0,9.0,89,0.00,,,0.00,VWS V14.00,2013-01-07 10:55:00,
2013-01-07 06:00:00,24.4,21.4,30.06,SW,223,3.0,3.0,88,0.00,,,0.00,VWS V14.00,2013-01-07 11:00:00,
2013-01-07 06:05:00,24.1,21.1,30.07,NNW,342,3.0,4.0,88,0.00,,,0.00,VWS V14.00,2013-01-07 11:05:00,
2013-01-07 06:10:00,23.9,21.1,30.07,WSW,253,0.0,5.0,89,0.00,,,0.00,VWS V14.00,2013-01-07 11:10:00,
2013-01-07 06:15:00,23.6,20.6,30.07,NNE,26,0.0,7.0,88,0.00,,,0.00,VWS V14.00,2013-01-07 11:15:00,
2013-01-07 06:20:00,23.4,20.4,30.07,NE,52,1.0,7.0,88,0.00,,,0.00,VWS V14.00,2013-01-07 11:20:00,
2013-01-07 06:25:00,23.2,20.2,30.08,NNW,329,2.0,7.0,88,0.00,,,0.00,VWS V14.00,2013-01-07 11:25:00,
2013-01-07 06:30:00,23.0,21.8,30.08,South,180,1.0,5.0,95,0.00,,,0.00,VWS V14.00,2013-01-07 11:30:00,
2013-01-07 06:35:00,22.7,19.4,30.08,North,355,3.0,5.0,87,0.00,,,0.00,VWS V14.00,2013-01-07 11:35:00,
2013-01-07 06:40:00,22.6,19.3,30.08,ENE,63,0.0,5.0,87,0.00,,,0.00,VWS V14.00,2013-01-07 11:40:00,
2013-01-07 06:45:00,22.5,19.2,30.09,WSW,249,2.0,9.0,87,0.00,,,0.00,VWS V14.00,2013-01-07 11:45:00,
2013-01-07 06:50:00,22.3,19.0,30.10,ENE,77,0.0,9.0,87,0.00,,,0.00,VWS V14.00,2013-01-07 11:50:00,
2013-01-07 06:55:00,22.2,18.7,30.10,NE,34,1.0,9.0,86,0.00,,,0.00,VWS V14.00,2013-01-07 11:55:00,
2013-01-07 07:00:00,22.0,18.5,30.11,East,94,3.0,9.0,86,0.00,,,0.00,VWS V14.00,2013-01-07 12:00:00,
2013-01-07 07:05:00,21.7,17.9,30.11,North,5,1.0,9.0,85,0.00,,,0.00,VWS V14.00,2013-01-07 12:05:00,
2013-01-07 07:10:00,21.3,17.5,30.12,WSW,251,1.0,9.0,85,0.00,,,0.00,VWS V14.00,2013-01-07 12:10:00,
2013-01-07 07:15:00,21.1,17.3,30.12,NNW,344,1.0,9.0,85,0.00,,,0.00,VWS V14.00,2013-01-07 12:15:00,
2013-01-07 07:20:00,20.8,16.7,30.12,WSW,241,2.0,9.0,84,0.00,,,0.00,VWS V14.00,2013-01-07 12:20:00,
2013-01-07 07:25:00,20.6,16.5,30.13,East,92,1.0,9.0,84,0.00,,,0.00,VWS V14.00,2013-01-07 12:25:00,
2013-01-07 07:30:00,20.4,16.4,30.13,NE,42,1.0,7.0,84,0.00,,,0.00,VWS V14.00,2013-01-07 12:30:00,
2013-01-07 07:35:00,20.1,16.0,30.14,ENE,71,3.0,7.0,84,0.00,,,0.00,VWS V14.00,2013-01-07 12:35:00,
2013-01-07 07:40:00,19.8,15.8,30.14,ESE,105,1.0,8.0,84,0.00,,,0.00,VWS V14.00,2013-01-07 12:40:00,
2013-01-07 07:46:00,19.7,15.9,30.14,East,84,2.0,9.0,85,0.00,,,0.00,VWS V14.00,2013-01-07 12:46:00,
2013-01-07 07:51:00,19.6,15.8,30.15,NNE,22,0.0,9.0,85,0.00,,,0.00,VWS V14.00,2013-01-07 12:51:00,
2013-01-07 07:56:00,19.3,15.5,30.15,NE,39,1.0,9.0,85,0.00,,,0.00,VWS V14.00,2013-01-07 12:56:00,
2013-01-07 08:01:00,19.5,15.7,30.16,NNW,340,1.0,4.0,85,0.00,,BKN090,0.00,VWS V14.00,2013-01-07 13:01:00,
2013-01-07 08:06:00,19.7,15.9,30.16,East,90,2.0,8.0,85,0.00,,BKN090,0.00,VWS V14.00,2013-01-07 13:06:00,
2013-01-07 08:11:00,19.7,15.7,30.17,East,80,5.0,8.0,84,0.00,,BKN090,0.00,VWS V14.00,2013-01-07 13:11:00,
2013-01-07 08:16:00,19.5,15.2,30.17,East,82,5.0,8.0,83,0.00,,BKN090,0.00,VWS V14.00,2013-01-07 13:16:00,
2013-01-07 08:21:00,19.5,14.9,30.18,ENE,65,3.0,10.0,82,0.00,,BKN090,0.00,VWS V14.00,2013-01-07 13:21:00,
2013-01-07 08:26:00,19.8,14.9,30.18,NE,49,3.0,10.0,81,0.00,,BKN090,0.00,VWS V14.00,2013-01-07 13:26:00,
2013-01-07 08:31:00,19.9,15.0,30.18,ENE,78,4.0,6.0,81,0.00,,BKN090,0.00,VWS V14.00,2013-01-07 13:31:00,
2013-01-07 08:36:00,19.9,15.0,30.18,NNW,338,4.0,6.0,81,0.00,,BKN090,0.00,VWS V14.00,2013-01-07 13:36:00,
2013-01-07 08:41:00,20.0,14.8,30.19,NNE,15,2.0,10.0,80,0.00,,BKN090,0.00,VWS V14.00,2013-01-07 13:41:00,
2013-01-07 08:46:00,20.2,14.7,30.19,NNE,32,2.0,10.0,79,0.00,,BKN090,0.00,VWS V14.00,2013-01-07 13:46:00,
2013-01-07 08:51:00,20.2,14.7,30.20,ENE,61,3.0,10.0,79,0.00,,BKN090,0.00,VWS V14.00,2013-01-07 13:51:00,
2013-01-07 08:56:00,20.4,14.6,30.20,NE,37,3.0,10.0,78,0.00,,BKN090,0.00,VWS V14.00,2013-01-07 13:56:00,
2013-01-07 09:01:00,20.7,14.6,30.21,NNW,342,4.0,11.0,77,0.00,,BKN036,0.00,VWS V14.00,2013-01-07 14:01:00,
2013-01-07 09:06:00,20.4,14.4,30.22,NNW,340,4.0,14.0,77,0.00,,BKN036,0.00,VWS V14.00,2013-01-07 14:06:00,
2013-01-07 09:11:00,20.6,14.6,30.22,NNE,17,5.0,14.0,77,0.00,,BKN036,0.00,VWS V14.00,2013-01-07 14:11:00,
2013-01-07 09:16:00,21.0,14.9,30.22,East,85,5.0,14.0,77,0.00,,BKN036,0.00,VWS V14.00,2013-01-07 14:16:00,
2013-01-07 09:21:00,20.9,14.8,30.22,East,93,1.0,14.0,77,0.00,,BKN036,0.00,VWS V14.00,2013-01-07 14:21:00,
2013-01-07 09:26:00,20.7,14.4,30.23,NNE,26,1.0,14.0,76,0.00,,BKN036,0.00,VWS V14.00,2013-01-07 14:26:00,
2013-01-07 09:31:00,20.8,14.4,30.23,NW,325,3.0,10.0,76,0.00,,BKN036,0.00,VWS V14.00,2013-01-07 14:31:00,
2013-01-07 09:36:00,21.0,14.6,30.24,ESE,107,2.0,10.0,76,0.00,,BKN036,0.00,VWS V14.00,2013-01-07 14:36:00,
2013-01-07 09:41:00,21.0,14.0,30.24,ENE,73,5.0,10.0,74,0.00,,BKN036,0.00,VWS V14.00,2013-01-07 14:41:00,
2013-01-07 09:46:00,21.2,14.2,30.25,North,5,5.0,10.0,74,0.00,,BKN036,0.00,VWS V14.00,2013-01-07 14:46:00,
2013-01-07 09:51:00,21.3,14.0,30.25,South,169,2.0,12.0,73,0.00,,BKN036,0.00,VWS V14.00,2013-01-07 14:51:00,
2013-01-07 09:56:00,21.3,14.3,30.25,East,80,6.0,12.0,74,0.00,,BKN036,0.00,VWS V14.00,2013-01-07 14:56:00,
2013-01-07 10:01:00,21.9,14.3,30.25,NE,48,5.0,10.0,72,0.00,,FEW035,0.00,VWS V14.00,2013-01-07 15:01:00,
2013-01-07 10:06:00,22.4,14.4,30.25,NE,41,2.0,13.0,71,0.00,,FEW035,0.00,VWS V14.00,2013-01-07 15:06:00,
2013-01-07 10:11:00,22.6,14.3,30.25,North,360,1.0,13.0,70,0.00,,FEW035,0.00,VWS V14.00,2013-01-07 15:11:00,
2013-01-07 10:16:00,22.8,14.5,30.25,NNE,26,2.0,13.0,70,0.00,,FEW035,0.00,VWS V14.00,2013-01-07 15:16:00,
2013-01-07 10:21:00,22.0,15.9,30.25,NE,56,0.0,13.0,77,0.00,,FEW035,0.00,VWS V14.00,2013-01-07 15:21:00,
2013-01-07 10:26:00,22.5,14.2,30.25,East,80,10.0,13.0,70,0.00,,FEW035,0.00,VWS V14.00,2013-01-07 15:26:00,
2013-01-07 10:31:00,22.5,13.9,30.25,East,80,1.0,4.0,69,0.00,,FEW035,0.00,VWS V14.00,2013-01-07 15:31:00,
2013-01-07 10:36:00,22.2,13.6,30.25,ENE,61,7.0,11.0,69,0.00,,FEW035,0.00,VWS V14.00,2013-01-07 15:36:00,
2013-01-07 10:41:00,22.6,13.6,30.26,NE,47,4.0,11.0,68,0.00,,FEW035,0.00,VWS V14.00,2013-01-07 15:41:00,
2013-01-07 10:46:00,22.5,13.6,30.26,East,80,6.0,11.0,68,0.00,,FEW035,0.00,VWS V14.00,2013-01-07 15:46:00,
2013-01-07 10:51:00,23.0,14.0,30.26,North,360,0.0,11.0,68,0.00,,FEW035,0.00,VWS V14.00,2013-01-07 15:51:00,
2013-01-07 10:56:00,22.7,13.7,30.26,North,5,3.0,11.0,68,0.00,,FEW035,0.00,VWS V14.00,2013-01-07 15:56:00,
2013-01-07 11:01:00,23.2,14.2,30.26,NE,40,4.0,6.0,68,0.00,,FEW045,0.00,VWS V14.00,2013-01-07 16:01:00,
2013-01-07 11:06:00,23.0,14.0,30.26,ENE,71,4.0,7.0,68,0.00,,FEW045,0.00,VWS V14.00,2013-01-07 16:06:00,
2013-01-07 11:11:00,22.5,13.6,30.26,ENE,57,7.0,12.0,68,0.00,,FEW045,0.00,VWS V14.00,2013-01-07 16:11:00,
2013-01-07 11:16:00,22.7,13.7,30.26,West,261,7.0,12.0,68,0.00,,FEW045,0.00,VWS V14.00,2013-01-07 16:16:00,
2013-01-07 11:21:00,22.6,14.0,30.26,NNE,19,3.0,12.0,69,0.00,,FEW045,0.00,VWS V14.00,2013-01-07 16:21:00,
2013-01-07 11:25:00,22.5,13.9,30.26,NNW,348,4.0,12.0,69,0.00,,FEW045,0.00,VWS V14.00,2013-01-07 16:25:00,
2013-01-07 11:30:00,22.9,13.9,30.26,NNE,22,4.0,10.0,68,0.00,,FEW045,0.00,VWS V14.00,2013-01-07 16:30:00,
2013-01-07 11:35:00,22.9,14.3,30.26,NE,39,6.0,10.0,69,0.00,,FEW045,0.00,VWS V14.00,2013-01-07 16:35:00,
2013-01-07 11:40:00,23.2,14.2,30.26,NE,38,2.0,10.0,68,0.00,,FEW045,0.00,VWS V14.00,2013-01-07 16:40:00,
2013-01-07 11:45:00,23.1,14.1,30.26,East,91,7.0,10.0,68,0.00,,FEW045,0.00,VWS V14.00,2013-01-07 16:45:00,
2013-01-07 11:50:00,23.4,14.1,30.26,NNE,13,2.0,10.0,67,0.00,,FEW045,0.00,VWS V14.00,2013-01-07 16:50:00,
2013-01-07 11:55:00,23.4,14.1,30.26,ENE,65,2.0,10.0,67,0.00,,FEW045,0.00,VWS V14.00,2013-01-07 16:55:00,
2013-01-07 12:00:00,23.7,14.4,30.26,East,87,6.0,11.0,67,0.00,,FEW045,0.00,VWS V14.00,2013-01-07 17:00:00,
2013-01-07 12:05:00,23.6,14.6,30.26,NE,56,6.0,11.0,68,0.00,,FEW045,0.00,VWS V14.00,2013-01-07 17:05:00,
2013-01-07 12:10:00,23.9,14.6,30.26,ENE,67,3.0,11.0,67,0.00,,FEW045,0.00,VWS V14.00,2013-01-07 17:10:00,
2013-01-07 12:15:00,23.7,14.4,30.26,NE,46,0.0,11.0,67,0.00,,FEW045,0.00,VWS V14.00,2013-01-07 17:15:00,
2013-01-07 12:20:00,24.2,15.2,30.26,ENE,61,7.0,11.0,68,0.00,,FEW045,0.00,VWS V14.00,2013-01-07 17:20:00,
2013-01-07 12:25:00,24.1,14.7,30.26,ENE,77,7.0,11.0,67,0.00,,FEW045,0.00,VWS V14.00,2013-01-07 17:25:00,
2013-01-07 12:30:00,24.1,14.7,30.27,North,349,2.0,9.0,67,0.00,,FEW045,0.00,VWS V14.00,2013-01-07 17:30:00,
2013-01-07 12:35:00,24.2,14.8,30.26,NE,50,2.0,9.0,67,0.00,,FEW045,0.00,VWS V14.00,2013-01-07 17:35:00,
2013-01-07 12:40:00,24.2,14.8,30.26,East,81,5.0,9.0,67,0.00,,FEW045,0.00,VWS V14.00,2013-01-07 17:40:00,
2013-01-07 12:45:00,24.2,15.2,30.26,NE,48,5.0,9.0,68,0.00,,FEW045,0.00,VWS V14.00,2013-01-07 17:45:00,
2013-01-07 12:50:00,24.4,15.0,30.26,NE,52,8.0,9.0,67,0.00,,FEW045,0.00,VWS V14.00,2013-01-07 17:50:00,
2013-01-07 12:55:00,24.8,15.4,30.26,ESE,107,2.0,9.0,67,0.00,,FEW045,0.00,VWS V14.00,2013-01-07 17:55:00,
2013-01-07 13:00:00,24.8,15.1,30.26,East,83,2.0,10.0,66,0.00,,FEW045,0.00,VWS V14.00,2013-01-07 18:00:00,
2013-01-07 13:05:00,25.1,15.4,30.26,ESE,119,1.0,10.0,66,0.00,,FEW045,0.00,VWS V14.00,2013-01-07 18:05:00,
2013-01-07 13:10:00,25.2,15.4,30.27,ENE,78,1.0,10.0,66,0.00,,FEW045,0.00,VWS V14.00,2013-01-07 18:10:00,
2013-01-07 13:15:00,24.9,15.2,30.27,East,96,6.0,10.0,66,0.00,,FEW045,0.00,VWS V14.00,2013-01-07 18:15:00,
2013-01-07 13:20:00,25.8,16.0,30.27,WNW,298,3.0,10.0,66,0.00,,FEW045,0.00,VWS V14.00,2013-01-07 18:20:00,
2013-01-07 13:25:00,25.4,15.6,30.27,West,267,4.0,10.0,66,0.00,,FEW045,0.00,VWS V14.00,2013-01-07 18:25:00,
2013-01-07 13:30:00,26.0,15.9,30.28,NW,311,0.0,7.0,65,0.00,,FEW045,0.00,VWS V14.00,2013-01-07 18:30:00,
2013-01-07 13:35:00,25.8,16.0,30.28,North,5,1.0,9.0,66,0.00,,FEW045,0.00,VWS V14.00,2013-01-07 18:35:00,
2013-01-07 13:40:00,26.2,16.1,30.28,NE,45,5.0,9.0,65,0.00,,FEW045,0.00,VWS V14.00,2013-01-07 18:40:00,
2013-01-07 13:45:00,26.0,15.9,30.28,NE,39,1.0,9.0,65,0.00,,FEW045,0.00,VWS V14.00,2013-01-07 18:45:00,
2013-01-07 13:50:00,25.9,15.8,30.28,NNE,22,0.0,9.0,65,0.00,,FEW045,0.00,VWS V14.00,2013-01-07 18:50:00,
2013-01-07 13:55:00,25.8,15.7,30.28,East,80,0.0,9.0,65,0.00,,FEW045,0.00,VWS V14.00,2013-01-07 18:55:00,
2013-01-07 14:00:00,26.1,15.6,30.28,WNW,285,4.0,5.0,64,0.00,,FEW045,0.00,VWS V14.00,2013-01-07 19:00:00,
2013-01-07 14:05:00,25.8,15.3,30.28,NNE,24,2.0,9.0,64,0.00,,FEW045,0.00,VWS V14.00,2013-01-07 19:05:00,
2013-01-07 14:10:00,26.0,15.5,30.28,East,84,3.0,9.0,64,0.00,,FEW045,0.00,VWS V14.00,2013-01-07 19:10:00,
2013-01-07 14:15:00,26.9,16.4,30.28,NNW,348,0.0,9.0,64,0.00,,FEW045,0.00,VWS V14.00,2013-01-07 19:15:00,
2013-01-07 14:20:00,26.3,15.4,30.28,NE,49,0.0,9.0,63,0.00,,FEW045,0.00,VWS V14.00,2013-01-07 19:20:00,
2013-01-07 14:25:00,26.3,15.4,30.28,East,84,0.0,9.0,63,0.00,,FEW045,0.00,VWS V14.00,2013-01-07 19:25:00,
2013-01-07 14:30:00,27.1,16.2,30.28,East,84,1.0,2.0,63,0.00,,FEW045,0.00,VWS V14.00,2013-01-07 19:30:00,
2013-01-07 14:35:00,26.6,15.7,30.29,ENE,69,1.0,5.0,63,0.01,,FEW045,0.01,VWS V14.00,2013-01-07 19:35:00,
2013-01-07 14:40:00,26.6,15.7,30.29,East,86,2.0,5.0,63,0.01,,FEW045,0.01,VWS V14.00,2013-01-07 19:40:00,
2013-01-07 14:45:00,26.9,15.6,30.29,ENE,72,0.0,5.0,62,0.01,,FEW045,0.01,VWS V14.00,2013-01-07 19:45:00,
2013-01-07 14:50:00,26.5,15.3,30.30,ENE,78,3.0,5.0,62,0.01,,FEW045,0.01,VWS V14.00,2013-01-07 19:50:00,
2013-01-07 14:55:00,26.6,15.7,30.30,East,96,1.0,5.0,63,0.01,,FEW045,0.01,VWS V14.00,2013-01-07 19:55:00,
2013-01-07 15:00:00,26.7,15.4,30.30,ENE,65,2.0,5.0,62,0.01,,CLR,0.01,VWS V14.00,2013-01-07 20:00:00,
2013-01-07 15:05:00,26.2,15.3,30.31,ENE,65,0.0,5.0,63,0.01,,CLR,0.01,VWS V14.00,2013-01-07 20:05:00,
2013-01-07 15:10:00,26.2,15.3,30.31,ENE,65,1.0,5.0,63,0.01,,CLR,0.01,VWS V14.00,2013-01-07 20:10:00,
2013-01-07 15:15:00,26.5,15.6,30.31,ENE,64,2.0,5.0,63,0.01,,CLR,0.01,VWS V14.00,2013-01-07 20:15:00,
2013-01-07 15:19:00,26.1,16.3,30.31,ENE,64,0.0,5.0,66,0.01,,CLR,0.01,VWS V14.00,2013-01-07 20:19:00,
2013-01-07 15:24:00,26.4,15.9,30.31,ENE,64,0.0,5.0,64,0.01,,CLR,0.01,VWS V14.00,2013-01-07 20:24:00,
2013-01-07 15:29:00,26.2,15.7,30.31,ENE,64,1.0,1.0,64,0.01,,CLR,0.01,VWS V14.00,2013-01-07 20:29:00,
2013-01-07 15:34:00,26.0,15.5,30.31,ENE,64,1.0,2.0,64,0.01,,CLR,0.01,VWS V14.00,2013-01-07 20:34:00,
2013-01-07 15:39:00,25.3,15.2,30.31,ENE,64,2.0,3.0,65,0.01,,CLR,0.01,VWS V14.00,2013-01-07 20:39:00,
2013-01-07 15:44:00,25.4,14.9,30.32,ENE,64,1.0,4.0,64,0.01,,CLR,0.01,VWS V14.00,2013-01-07 20:44:00,
2013-01-07 15:49:00,24.8,15.1,30.32,ENE,64,0.0,4.0,66,0.01,,CLR,0.01,VWS V14.00,2013-01-07 20:49:00,
2013-01-07 15:54:00,24.2,16.5,30.32,ENE,64,0.0,4.0,72,0.01,,CLR,0.01,VWS V14.00,2013-01-07 20:54:00,
2013-01-07 15:59:00,23.8,16.1,30.33,ENE,64,0.0,0.0,72,0.00,,CLR,0.01,VWS V14.00,2013-01-07 20:59:00,
2013-01-07 16:04:00,23.4,16.4,30.33,ENE,64,0.0,0.0,74,0.00,,CLR,0.01,VWS V14.00,2013-01-07 21:04:00,
2013-01-07 16:09:00,23.0,16.0,30.33,ENE,64,0.0,0.0,74,0.00,,CLR,0.01,VWS V14.00,2013-01-07 21:09:00,
2013-01-07 16:14:00,23.0,16.3,30.33,ENE,64,0.0,0.0,75,0.00,,CLR,0.01,VWS V14.00,2013-01-07 21:14:00,
2013-01-07 16:19:00,22.4,16.3,30.33,ENE,64,0.0,0.0,77,0.00,,CLR,0.01,VWS V14.00,2013-01-07 21:19:00,
2013-01-07 16:24:00,21.8,15.4,30.33,ENE,64,0.0,0.0,76,0.00,,CLR,0.01,VWS V14.00,2013-01-07 21:24:00,
2013-01-07 16:29:00,21.3,15.8,30.33,ENE,64,0.0,0.0,79,0.00,,CLR,0.01,VWS V14.00,2013-01-07 21:29:00,
2013-01-07 16:34:00,21.0,16.1,30.33,ENE,64,0.0,0.0,81,0.00,,CLR,0.01,VWS V14.00,2013-01-07 21:34:00,
2013-01-07 16:39:00,20.7,16.1,30.33,ENE,64,0.0,0.0,82,0.00,,CLR,0.01,VWS V14.00,2013-01-07 21:39:00,
2013-01-07 16:44:00,20.0,15.1,30.33,ENE,64,0.0,0.0,81,0.00,,CLR,0.01,VWS V14.00,2013-01-07 21:44:00,
2013-01-07 16:49:00,19.9,15.3,30.33,ENE,64,0.0,0.0,82,0.00,,CLR,0.01,VWS V14.00,2013-01-07 21:49:00,
2013-01-07 16:54:00,19.6,15.3,30.34,ENE,64,0.0,0.0,83,0.00,,CLR,0.01,VWS V14.00,2013-01-07 21:54:00,
2013-01-07 16:59:00,19.3,15.3,30.34,ENE,64,0.0,0.0,84,0.00,,CLR,0.01,VWS V14.00,2013-01-07 21:59:00,
2013-01-07 17:04:00,18.9,14.9,30.35,ENE,64,0.0,0.0,84,0.00,,CLR,0.01,VWS V14.00,2013-01-07 22:04:00,
2013-01-07 17:09:00,18.9,14.9,30.35,ENE,64,0.0,0.0,84,0.00,,CLR,0.01,VWS V14.00,2013-01-07 22:09:00,
2013-01-07 17:14:00,18.6,14.6,30.35,ENE,64,0.0,0.0,84,0.00,,CLR,0.01,VWS V14.00,2013-01-07 22:14:00,
2013-01-07 17:19:00,18.3,14.3,30.34,ENE,64,0.0,0.0,84,0.00,,CLR,0.01,VWS V14.00,2013-01-07 22:19:00,
2013-01-07 17:24:00,17.8,13.8,30.34,ENE,64,0.0,0.0,84,0.00,,CLR,0.01,VWS V14.00,2013-01-07 22:24:00,
2013-01-07 17:29:00,17.4,13.4,30.34,ENE,64,0.0,0.0,84,0.00,,CLR,0.01,VWS V14.00,2013-01-07 22:29:00,
2013-01-07 17:34:00,17.1,13.4,30.34,ENE,64,0.0,0.0,85,0.00,,CLR,0.01,VWS V14.00,2013-01-07 22:34:00,
2013-01-07 17:39:00,16.9,13.2,30.35,ENE,64,0.0,0.0,85,0.00,,CLR,0.01,VWS V14.00,2013-01-07 22:39:00,
2013-01-07 17:44:00,16.9,13.4,30.35,ENE,64,0.0,0.0,86,0.00,,CLR,0.01,VWS V14.00,2013-01-07 22:44:00,
2013-01-07 17:49:00,16.6,13.1,30.35,ENE,64,0.0,0.0,86,0.00,,CLR,0.01,VWS V14.00,2013-01-07 22:49:00,
2013-01-07 17:54:00,16.4,12.9,30.36,ENE,64,0.0,0.0,86,0.00,,CLR,0.01,VWS V14.00,2013-01-07 22:54:00,
2013-01-07 17:59:00,16.1,12.7,30.36,ENE,64,0.0,0.0,86,0.00,,CLR,0.01,VWS V14.00,2013-01-07 22:59:00,
2013-01-07 18:04:00,15.8,12.4,30.36,ENE,64,0.0,0.0,86,0.00,,CLR,0.01,VWS V14.00,2013-01-07 23:04:00,
2013-01-07 18:09:00,15.5,12.3,30.36,ENE,64,0.0,0.0,87,0.00,,CLR,0.01,VWS V14.00,2013-01-07 23:09:00,
2013-01-07 18:14:00,15.2,12.0,30.37,ENE,64,0.0,0.0,87,0.00,,CLR,0.01,VWS V14.00,2013-01-07 23:14:00,
2013-01-07 18:19:00,15.0,11.8,30.36,ENE,64,0.0,0.0,87,0.00,,CLR,0.01,VWS V14.00,2013-01-07 23:19:00,
2013-01-07 18:24:00,15.0,12.1,30.37,ENE,64,0.0,0.0,88,0.00,,CLR,0.01,VWS V14.00,2013-01-07 23:24:00,
2013-01-07 18:29:00,14.8,11.9,30.37,ENE,64,0.0,0.0,88,0.00,,CLR,0.01,VWS V14.00,2013-01-07 23:29:00,
2013-01-07 18:34:00,14.7,11.8,30.37,ENE,64,0.0,0.0,88,0.00,,CLR,0.01,VWS V14.00,2013-01-07 23:34:00,
2013-01-07 18:39:00,14.5,11.6,30.37,ENE,64,0.0,0.0,88,0.00,,CLR,0.01,VWS V14.00,2013-01-07 23:39:00,
2013-01-07 18:44:00,14.5,11.6,30.37,ENE,64,0.0,0.0,88,0.00,,CLR,0.01,VWS V14.00,2013-01-07 23:44:00,
2013-01-07 18:49:00,14.3,11.7,30.37,ENE,64,0.0,0.0,89,0.00,,CLR,0.01,VWS V14.00,2013-01-07 23:49:00,
2013-01-07 18:54:00,13.8,10.9,30.37,ENE,64,0.0,0.0,88,0.00,,CLR,0.01,VWS V14.00,2013-01-07 23:54:00,
2013-01-07 18:59:00,13.9,11.3,30.36,ENE,64,0.0,0.0,89,0.00,,CLR,0.01,VWS V14.00,2013-01-07 23:59:00,
2013-01-07 19:04:00,13.9,11.5,30.37,ENE,64,0.0,0.0,90,0.00,,CLR,0.01,VWS V14.00,2013-01-08 00:04:00,
2013-01-07 19:09:00,13.8,11.2,30.37,ENE,64,0.0,0.0,89,0.00,,CLR,0.01,VWS V14.00,2013-01-08 00:09:00,
2013-01-07 19:14:00,14.1,11.7,30.37,ENE,64,0.0,0.0,90,0.00,,CLR,0.01,VWS V14.00,2013-01-08 00:14:00,
2013-01-07 19:19:00,14.2,11.8,30.37,ENE,64,0.0,0.0,90,0.00,,CLR,0.01,VWS V14.00,2013-01-08 00:19:00,
2013-01-07 19:24:00,14.3,11.9,30.37,ENE,64,0.0,0.0,90,0.00,,CLR,0.01,VWS V14.00,2013-01-08 00:24:00,
2013-01-07 19:29:00,14.4,12.0,30.36,ENE,64,0.0,0.0,90,0.00,,CLR,0.01,VWS V14.00,2013-01-08 00:29:00,
2013-01-07 19:34:00,14.5,12.1,30.36,ENE,64,0.0,0.0,90,0.00,,CLR,0.01,VWS V14.00,2013-01-08 00:34:00,
2013-01-07 19:39:00,14.6,12.2,30.35,ENE,64,0.0,0.0,90,0.00,,CLR,0.01,VWS V14.00,2013-01-08 00:39:00,
2013-01-07 19:44:00,14.8,12.4,30.35,ENE,64,0.0,0.0,90,0.00,,CLR,0.01,VWS V14.00,2013-01-08 00:44:00,
2013-01-07 19:49:00,15.0,12.6,30.35,ENE,64,0.0,0.0,90,0.00,,CLR,0.01,VWS V14.00,2013-01-08 00:49:00,
2013-01-07 19:57:00,15.0,12.6,30.35,ENE,64,0.0,0.0,90,0.00,,CLR,0.01,VWS V14.00,2013-01-08 00:57:00,
2013-01-07 20:02:00,15.5,13.1,30.34,ENE,64,0.0,0.0,90,0.00,,CLR,0.01,VWS V14.00,2013-01-08 01:02:00,
2013-01-07 20:07:00,15.5,13.1,30.34,ENE,64,0.0,0.0,90,0.00,,CLR,0.01,VWS V14.00,2013-01-08 01:07:00,
2013-01-07 20:12:00,15.7,13.3,30.34,ENE,64,0.0,0.0,90,0.00,,CLR,0.01,VWS V14.00,2013-01-08 01:12:00,
2013-01-07 20:17:00,15.8,13.1,30.33,ENE,64,0.0,0.0,89,0.00,,CLR,0.01,VWS V14.00,2013-01-08 01:17:00,
2013-01-07 20:29:00,16.2,13.5,30.33,ENE,64,0.0,0.0,89,0.00,,CLR,0.01,VWS V14.00,2013-01-08 01:29:00,
2013-01-07 20:34:00,16.5,14.1,30.33,ENE,64,0.0,0.0,90,0.00,,CLR,0.01,VWS V14.00,2013-01-08 01:34:00,
2013-01-07 20:39:00,16.6,14.2,30.33,ENE,64,0.0,0.0,90,0.00,,CLR,0.01,VWS V14.00,2013-01-08 01:39:00,
2013-01-07 20:44:00,16.7,14.3,30.33,ENE,64,0.0,0.0,90,0.00,,CLR,0.01,VWS V14.00,2013-01-08 01:44:00,
2013-01-07 20:50:00,16.8,14.1,30.33,ENE,64,0.0,0.0,89,0.00,,CLR,0.01,VWS V14.00,2013-01-08 01:50:00,
2013-01-07 20:55:00,17.0,14.3,30.33,ENE,64,0.0,0.0,89,0.00,,CLR,0.01,VWS V14.00,2013-01-08 01:55:00,
2013-01-07 21:00:00,17.2,14.5,30.33,ENE,64,0.0,0.0,89,0.00,,CLR,0.01,VWS V14.00,2013-01-08 02:00:00,
2013-01-07 21:05:00,17.5,14.8,30.33,ENE,64,0.0,0.0,89,0.00,,CLR,0.01,VWS V14.00,2013-01-08 02:05:00,
2013-01-07 21:10:00,17.8,15.1,30.33,ENE,64,0.0,0.0,89,0.00,,CLR,0.01,VWS V14.00,2013-01-08 02:10:00,
2013-01-07 21:15:00,18.0,15.3,30.32,ENE,64,0.0,0.0,89,0.00,,CLR,0.01,VWS V14.00,2013-01-08 02:15:00,
2013-01-07 21:20:00,18.1,15.4,30.32,ENE,64,0.0,0.0,89,0.00,,CLR,0.01,VWS V14.00,2013-01-08 02:20:00,
2013-01-07 21:25:00,18.1,15.1,30.32,ENE,64,0.0,0.0,88,0.00,,CLR,0.01,VWS V14.00,2013-01-08 02:25:00,
2013-01-07 21:30:00,18.2,15.2,30.32,ENE,64,0.0,0.0,88,0.00,,CLR,0.01,VWS V14.00,2013-01-08 02:30:00,
2013-01-07 21:35:00,18.4,15.4,30.32,ENE,64,0.0,0.0,88,0.00,,CLR,0.01,VWS V14.00,2013-01-08 02:35:00,
2013-01-07 21:40:00,18.5,15.6,30.32,ENE,64,2.0,3.0,88,0.00,,CLR,0.01,VWS V14.00,2013-01-08 02:40:00,
2013-01-07 21:45:00,18.8,15.8,30.33,West,271,0.0,8.0,88,0.00,,CLR,0.01,VWS V14.00,2013-01-08 02:45:00,
2013-01-07 21:50:00,19.3,16.3,30.33,West,271,0.0,8.0,88,0.00,,CLR,0.01,VWS V14.00,2013-01-08 02:50:00,
2013-01-07 21:55:00,19.6,16.6,30.32,West,271,0.0,8.0,88,0.00,,CLR,0.01,VWS V14.00,2013-01-08 02:55:00,
2013-01-07 22:00:00,19.8,16.8,30.33,West,271,0.0,0.0,88,0.00,,CLR,0.01,VWS V14.00,2013-01-08 03:00:00,
2013-01-07 22:05:00,20.0,17.0,30.33,West,271,0.0,0.0,88,0.00,,CLR,0.01,VWS V14.00,2013-01-08 03:05:00,
2013-01-07 22:10:00,20.0,17.0,30.32,West,271,0.0,1.0,88,0.00,,CLR,0.01,VWS V14.00,2013-01-08 03:10:00,
2013-01-07 22:15:00,20.0,16.8,30.32,West,271,0.0,1.0,87,0.00,,CLR,0.01,VWS V14.00,2013-01-08 03:15:00,
2013-01-07 22:20:00,19.8,16.6,30.32,West,271,0.0,1.0,87,0.00,,CLR,0.01,VWS V14.00,2013-01-08 03:20:00,
2013-01-07 22:24:00,19.4,16.2,30.32,West,271,0.0,1.0,87,0.00,,CLR,0.01,VWS V14.00,2013-01-08 03:24:00,
2013-01-07 22:30:00,19.0,16.0,30.32,West,271,0.0,0.0,88,0.00,,CLR,0.01,VWS V14.00,2013-01-08 03:30:00,
2013-01-07 22:35:00,18.7,15.7,30.32,West,271,0.0,0.0,88,0.00,,CLR,0.01,VWS V14.00,2013-01-08 03:35:00,
2013-01-07 22:40:00,18.4,15.7,30.32,West,271,0.0,0.0,89,0.00,,CLR,0.01,VWS V14.00,2013-01-08 03:40:00,
2013-01-07 22:45:00,17.9,15.2,30.32,West,271,0.0,0.0,89,0.00,,CLR,0.01,VWS V14.00,2013-01-08 03:45:00,
2013-01-07 22:50:00,17.5,14.8,30.32,West,271,0.0,0.0,89,0.00,,CLR,0.01,VWS V14.00,2013-01-08 03:50:00,
2013-01-07 22:55:00,17.2,14.5,30.32,West,271,0.0,0.0,89,0.00,,CLR,0.01,VWS V14.00,2013-01-08 03:55:00,
2013-01-07 23:00:00,16.9,14.5,30.32,West,271,0.0,0.0,90,0.00,,CLR,0.01,VWS V14.00,2013-01-08 04:00:00,
2013-01-07 23:04:00,16.7,14.3,30.32,West,271,0.0,0.0,90,0.00,,BKN030,0.01,VWS V14.00,2013-01-08 04:04:00,
2013-01-07 23:09:00,16.3,13.9,30.32,West,271,0.0,0.0,90,0.00,,BKN030,0.01,VWS V14.00,2013-01-08 04:09:00,
2013-01-07 23:14:00,16.1,13.9,30.31,West,271,0.0,0.0,91,0.00,,BKN030,0.01,VWS V14.00,2013-01-08 04:14:00,
2013-01-07 23:19:00,16.0,13.8,30.31,West,271,0.0,1.0,91,0.00,,BKN030,0.01,VWS V14.00,2013-01-08 04:19:00,
2013-01-07 23:24:00,15.8,13.6,30.31,West,271,0.0,1.0,91,0.00,,BKN030,0.01,VWS V14.00,2013-01-08 04:24:00,
2013-01-07 23:29:00,15.5,13.4,30.32,West,271,0.0,0.0,91,0.00,,BKN030,0.01,VWS V14.00,2013-01-08 04:29:00,
2013-01-07 23:34:00,15.3,13.1,30.31,West,271,0.0,0.0,91,0.00,,BKN030,0.01,VWS V14.00,2013-01-08 04:34:00,
2013-01-07 23:39:00,15.1,12.9,30.31,West,271,0.0,0.0,91,0.00,,BKN030,0.01,VWS V14.00,2013-01-08 04:39:00,
2013-01-07 23:44:00,14.9,12.8,30.31,West,271,0.0,0.0,91,0.00,,BKN030,0.01,VWS V14.00,2013-01-08 04:44:00,
2013-01-07 23:49:00,14.6,12.5,30.31,West,271,0.0,0.0,91,0.00,,BKN030,0.01,VWS V14.00,2013-01-08 04:49:00,
2013-01-07 23:54:00,14.5,12.4,30.31,West,271,0.0,0.0,91,0.00,,BKN030,0.01,VWS V14.00,2013-01-08 04:54:00,
2013-01-07 23:59:00,14.2,12.1,30.31,West,271,0.0,0.0,91,0.00,,BKN030,0.00,VWS V14.00,2013-01-08 04:59:00,